createdAt,value
2023-10-12T00:01:02.312Z,16.09
2023-10-12T00:02:16.033Z,16.03
2023-10-12T00:03:18.333Z,16.11
2023-10-12T00:04:20.053Z,16.10
2023-10-12T00:05:22.153Z,16.12
2023-10-12T00:06:26.173Z,16.06
2023-10-12T00:07:39.561Z,15.98
2023-10-12T00:08:41.213Z,15.97
2023-10-12T00:09:49.782Z,15.96
2023-10-12T00:10:55.309Z,15.88
2023-10-12T00:11:59.445Z,15.89
2023-10-12T00:13:01.201Z,15.84
2023-10-12T00:14:02.862Z,15.86
2023-10-12T00:15:23.219Z,15.86
2023-10-12T00:16:25.515Z,15.80
2023-10-12T00:17:28.224Z,15.75
2023-10-12T00:18:29.854Z,15.71
2023-10-12T00:19:31.502Z,15.69
2023-10-12T00:20:33.013Z,15.80
2023-10-12T00:21:37.111Z,15.78
2023-10-12T00:22:38.846Z,15.65
2023-10-12T00:23:40.289Z,15.48
2023-10-12T00:24:42.255Z,15.51
2023-10-12T00:25:49.722Z,15.45
2023-10-12T00:26:52.079Z,15.43
2023-10-12T00:27:53.925Z,15.47
2023-10-12T00:28:56.931Z,15.43
2023-10-12T00:29:58.726Z,15.47
2023-10-12T00:31:06.631Z,15.49
2023-10-12T00:32:09.662Z,15.48
2023-10-12T00:33:11.201Z,15.55
2023-10-12T00:34:13.638Z,15.42
2023-10-12T00:35:15.586Z,15.39
2023-10-12T00:36:23.079Z,15.42
2023-10-12T00:37:25.079Z,15.39
2023-10-12T00:38:30.234Z,15.32
2023-10-12T00:39:47.643Z,15.28
2023-10-12T00:40:52.898Z,15.36
2023-10-12T00:41:57.064Z,15.36
2023-10-12T00:43:01.804Z,15.40
2023-10-12T00:44:24.497Z,15.54
2023-10-12T00:45:30.597Z,15.57
2023-10-12T00:46:32.158Z,15.53
2023-10-12T00:47:45.401Z,15.62
2023-10-12T00:48:51.241Z,15.66
2023-10-12T00:49:52.904Z,15.65
2023-10-12T00:50:57.600Z,15.63
2023-10-12T00:52:23.430Z,15.64
2023-10-12T00:53:32.566Z,15.54
2023-10-12T00:54:38.776Z,15.61
2023-10-12T00:55:40.253Z,15.65
2023-10-12T00:56:44.850Z,15.71
2023-10-12T00:57:46.514Z,15.70
2023-10-12T00:58:48.235Z,15.68
2023-10-12T00:59:52.642Z,15.79
2023-10-12T01:00:54.293Z,15.84
2023-10-12T01:01:56.447Z,15.84
2023-10-12T01:03:16.571Z,15.83
2023-10-12T01:04:18.180Z,15.83
2023-10-12T01:05:23.637Z,15.83
2023-10-12T01:06:25.173Z,15.78
2023-10-12T01:07:26.836Z,15.74
2023-10-12T01:08:31.581Z,15.80
2023-10-12T01:09:40.617Z,15.73
2023-10-12T01:10:42.378Z,15.75
2023-10-12T01:11:45.175Z,15.73
2023-10-12T01:12:46.710Z,15.72
2023-10-12T01:13:50.399Z,15.77
2023-10-12T01:14:55.700Z,15.69
2023-10-12T01:15:57.517Z,15.64
2023-10-12T01:16:59.718Z,15.54
2023-10-12T01:18:01.302Z,15.61
2023-10-12T01:19:06.868Z,15.67
2023-10-12T01:20:13.426Z,15.78
2023-10-12T01:21:14.923Z,15.76
2023-10-12T01:22:17.093Z,15.74
2023-10-12T01:23:20.015Z,15.77
2023-10-12T01:24:30.850Z,15.75
2023-10-12T01:25:32.700Z,15.82
2023-10-12T01:26:34.338Z,15.87
2023-10-12T01:27:42.408Z,15.88
2023-10-12T01:28:50.743Z,15.98
2023-10-12T01:29:53.416Z,16.09
2023-10-12T01:30:55.435Z,16.12
2023-10-12T01:32:10.081Z,16.08
2023-10-12T01:33:11.578Z,16.07
2023-10-12T01:34:14.921Z,16.06
2023-10-12T01:35:18.055Z,16.04
2023-10-12T01:36:21.391Z,15.97
2023-10-12T01:37:28.107Z,15.93
2023-10-12T01:38:37.891Z,15.94
2023-10-12T01:39:52.162Z,15.96
2023-10-12T01:40:57.531Z,15.93
2023-10-12T01:41:58.998Z,15.94
2023-10-12T01:43:02.393Z,15.87
2023-10-12T01:44:11.111Z,15.81
2023-10-12T01:45:36.140Z,15.87
2023-10-12T01:46:44.064Z,15.78
2023-10-12T01:47:51.912Z,15.87
2023-10-12T01:48:53.467Z,15.87
2023-10-12T01:49:55.196Z,15.85
2023-10-12T01:50:57.618Z,15.71
2023-10-12T01:51:59.217Z,15.65
2023-10-12T01:53:08.735Z,15.58
2023-10-12T01:54:13.533Z,15.53
2023-10-12T01:55:20.788Z,15.54
2023-10-12T01:56:28.224Z,15.58
2023-10-12T01:57:38.008Z,15.45
2023-10-12T01:58:41.871Z,15.38
2023-10-12T01:59:43.529Z,15.40
2023-10-12T02:00:54.746Z,15.30
2023-10-12T02:02:09.249Z,15.29
2023-10-12T02:03:16.577Z,15.28
2023-10-12T02:04:18.343Z,15.30
2023-10-12T02:05:25.953Z,15.27
2023-10-12T02:06:30.356Z,15.27
2023-10-12T02:07:32.195Z,15.19
2023-10-12T02:08:41.419Z,15.24
2023-10-12T02:09:45.257Z,15.16
2023-10-12T02:11:19.476Z,15.24
2023-10-12T02:12:26.513Z,15.20
2023-10-12T02:13:33.681Z,15.12
2023-10-12T02:14:35.263Z,15.19
2023-10-12T02:15:36.954Z,15.13
2023-10-12T02:16:39.475Z,15.16
2023-10-12T02:17:43.863Z,15.12
2023-10-12T02:18:48.483Z,15.10
2023-10-12T02:19:50.630Z,15.15
2023-10-12T02:21:08.789Z,15.25
2023-10-12T02:22:30.284Z,15.23
2023-10-12T02:23:37.600Z,15.16
2023-10-12T02:24:43.200Z,15.11
2023-10-12T02:25:51.889Z,15.08
2023-10-12T02:26:53.819Z,15.02
2023-10-12T02:27:56.333Z,15.02
2023-10-12T02:29:12.440Z,15.08
2023-10-12T02:30:19.504Z,15.07
2023-10-12T02:31:29.756Z,15.07
2023-10-12T02:32:47.477Z,15.13
2023-10-12T02:33:49.199Z,15.13
2023-10-12T02:34:58.538Z,15.12
2023-10-12T02:36:00.145Z,15.22
2023-10-12T02:37:02.269Z,15.13
2023-10-12T02:38:16.315Z,15.15
2023-10-12T02:39:22.166Z,15.16
2023-10-12T02:40:23.653Z,15.10
2023-10-12T02:41:25.908Z,15.11
2023-10-12T02:42:39.897Z,15.12
2023-10-12T02:43:44.741Z,15.10
2023-10-12T02:44:56.176Z,15.14
2023-10-12T02:46:02.926Z,15.12
2023-10-12T02:47:13.823Z,15.14
2023-10-12T02:48:24.412Z,15.19
2023-10-12T02:49:26.457Z,15.25
2023-10-12T02:50:28.831Z,15.23
2023-10-12T02:51:32.258Z,15.26
2023-10-12T02:52:33.774Z,15.24
2023-10-12T02:53:36.303Z,15.25
2023-10-12T02:54:50.292Z,15.28
2023-10-12T02:55:52.006Z,15.24
2023-10-12T02:56:57.588Z,15.30
2023-10-12T02:58:07.897Z,15.28
2023-10-12T02:59:11.156Z,15.33
2023-10-12T03:00:17.249Z,15.31
2023-10-12T03:01:23.377Z,15.37
2023-10-12T03:02:33.566Z,15.38
2023-10-12T03:03:38.572Z,15.28
2023-10-12T03:04:41.217Z,15.34
2023-10-12T03:05:48.812Z,15.30
2023-10-12T03:07:10.364Z,15.22
2023-10-12T03:08:17.892Z,15.22
2023-10-12T03:09:19.389Z,15.28
2023-10-12T03:10:30.565Z,15.25
2023-10-12T03:11:33.290Z,15.29
2023-10-12T03:12:37.176Z,15.30
2023-10-12T03:13:43.159Z,15.42
2023-10-12T03:14:46.423Z,15.39
2023-10-12T03:16:00.723Z,15.42
2023-10-12T03:17:06.505Z,15.50
2023-10-12T03:18:12.812Z,15.54
2023-10-12T03:19:27.035Z,15.52
2023-10-12T03:20:30.464Z,15.59
2023-10-12T03:21:34.905Z,15.64
2023-10-12T03:22:36.498Z,15.76
2023-10-12T03:23:40.006Z,15.85
2023-10-12T03:24:52.748Z,15.89
2023-10-12T03:25:54.571Z,15.90
2023-10-12T03:27:12.624Z,15.88
2023-10-12T03:28:30.702Z,15.97
2023-10-12T03:29:33.835Z,15.97
2023-10-12T03:30:35.866Z,16.06
2023-10-12T03:31:54.461Z,16.08
2023-10-12T03:32:57.952Z,16.14
2023-10-12T03:34:00.398Z,16.13
2023-10-12T03:35:01.976Z,16.13
2023-10-12T03:36:24.159Z,16.13
2023-10-12T03:37:45.715Z,16.04
2023-10-12T03:38:59.289Z,16.00
2023-10-12T03:40:01.120Z,16.17
2023-10-12T03:41:21.093Z,16.09
2023-10-12T03:42:28.208Z,16.17
2023-10-12T03:43:29.895Z,16.17
2023-10-12T03:44:37.323Z,16.19
2023-10-12T03:46:01.552Z,16.18
2023-10-12T03:47:22.794Z,16.23
2023-10-12T03:48:45.683Z,16.27
2023-10-12T03:49:54.353Z,16.25
2023-10-12T03:51:12.732Z,16.25
2023-10-12T03:52:15.713Z,16.18
2023-10-12T03:53:21.502Z,16.09
2023-10-12T03:54:27.860Z,16.13
2023-10-12T03:55:29.948Z,16.17
2023-10-12T03:56:39.647Z,16.19
2023-10-12T03:58:01.490Z,16.14
2023-10-12T03:59:09.676Z,16.14
2023-10-12T04:00:11.860Z,16.15
2023-10-12T04:01:22.019Z,16.07
2023-10-12T04:02:25.560Z,16.07
2023-10-12T04:03:40.699Z,16.04
2023-10-12T04:05:16.437Z,16.03
2023-10-12T04:06:24.356Z,15.94
2023-10-12T04:07:45.816Z,15.87
2023-10-12T04:08:52.536Z,15.84
2023-10-12T04:10:01.641Z,15.92
2023-10-12T04:11:23.293Z,15.78
2023-10-12T04:12:32.596Z,15.73
2023-10-12T04:13:34.490Z,15.80
2023-10-12T04:14:45.178Z,15.76
2023-10-12T04:16:05.415Z,15.68
2023-10-12T04:17:16.625Z,15.70
2023-10-12T04:18:18.020Z,15.69
2023-10-12T04:19:30.803Z,15.61
2023-10-12T04:20:34.877Z,15.51
2023-10-12T04:21:57.660Z,15.57
2023-10-12T04:23:37.088Z,15.51
2023-10-12T04:24:44.790Z,15.49
2023-10-12T04:25:52.270Z,15.46
2023-10-12T04:27:23.173Z,15.40
2023-10-12T04:28:25.132Z,15.38
2023-10-12T04:29:31.858Z,15.37
2023-10-12T04:30:43.329Z,15.37
2023-10-12T04:31:47.767Z,15.32
2023-10-12T04:32:52.145Z,15.36
2023-10-12T04:34:07.966Z,15.31
2023-10-12T04:35:22.258Z,15.29
2023-10-12T04:36:44.010Z,15.32
2023-10-12T04:37:45.508Z,15.35
2023-10-12T04:38:57.618Z,15.29
2023-10-12T04:40:09.855Z,15.26
2023-10-12T04:41:24.130Z,15.29
2023-10-12T04:42:28.568Z,15.24
2023-10-12T04:43:30.034Z,15.28
2023-10-12T04:44:31.510Z,15.34
2023-10-12T04:45:54.072Z,15.40
2023-10-12T04:47:06.588Z,15.39
2023-10-12T04:48:19.123Z,15.39
2023-10-12T04:49:20.611Z,15.45
2023-10-12T04:50:28.412Z,15.58
2023-10-12T04:51:31.992Z,15.57
2023-10-12T04:52:34.016Z,15.62
2023-10-12T04:53:58.278Z,15.54
2023-10-12T04:55:08.157Z,15.48
2023-10-12T04:56:10.840Z,15.50
2023-10-12T04:57:14.278Z,15.46
2023-10-12T04:58:36.072Z,15.48
2023-10-12T04:59:51.919Z,15.53
2023-10-12T05:01:13.721Z,15.63
2023-10-12T05:02:23.616Z,15.69
2023-10-12T05:03:27.126Z,15.73
2023-10-12T05:04:50.517Z,15.68
2023-10-12T05:05:58.637Z,15.71
2023-10-12T05:07:18.096Z,15.69
2023-10-12T05:08:21.319Z,15.79
2023-10-12T05:09:22.874Z,15.84
2023-10-12T05:10:32.993Z,15.79
2023-10-12T05:11:34.833Z,15.78
2023-10-12T05:12:36.527Z,15.75
2023-10-12T05:13:45.023Z,15.74
2023-10-12T05:14:47.448Z,15.71
2023-10-12T05:16:08.312Z,15.84
2023-10-12T05:17:10.115Z,15.99
2023-10-12T05:18:12.496Z,15.91
2023-10-12T05:19:14.046Z,16.00
2023-10-12T05:20:19.872Z,16.03
2023-10-12T05:21:21.367Z,16.10
2023-10-12T05:22:22.934Z,16.06
2023-10-12T05:23:24.581Z,16.07
2023-10-12T05:24:26.077Z,16.03
2023-10-12T05:25:34.279Z,16.09
2023-10-12T05:26:36.618Z,16.14
2023-10-12T05:27:41.568Z,16.24
2023-10-12T05:28:56.704Z,16.27
2023-10-12T05:30:02.325Z,16.25
2023-10-12T05:31:10.064Z,16.30
2023-10-12T05:32:19.897Z,16.23
2023-10-12T05:33:34.231Z,16.32
2023-10-12T05:34:39.666Z,16.36
2023-10-12T05:35:51.369Z,16.44
2023-10-12T05:36:52.842Z,16.28
2023-10-12T05:37:57.695Z,16.27
2023-10-12T05:39:13.331Z,16.14
2023-10-12T05:40:17.031Z,16.26
2023-10-12T05:41:38.626Z,16.27
2023-10-12T05:42:41.017Z,16.23
2023-10-12T05:43:42.564Z,16.17
2023-10-12T05:44:44.332Z,16.23
2023-10-12T05:45:46.398Z,16.19
2023-10-12T05:46:52.249Z,16.23
2023-10-12T05:47:54.419Z,16.26
2023-10-12T05:48:56.591Z,16.25
2023-10-12T05:49:58.463Z,16.19
2023-10-12T05:51:00.063Z,16.13
2023-10-12T05:52:06.026Z,16.08
2023-10-12T05:53:08.344Z,16.04
2023-10-12T05:54:09.830Z,16.05
2023-10-12T05:55:20.898Z,16.01
2023-10-12T05:56:24.422Z,16.06
2023-10-12T05:57:31.019Z,16.08
2023-10-12T05:58:35.127Z,16.06
2023-10-12T05:59:39.755Z,16.07
2023-10-12T06:00:47.718Z,16.13
2023-10-12T06:01:52.247Z,16.15
2023-10-12T06:02:53.930Z,16.25
2023-10-12T06:03:58.240Z,16.28
2023-10-12T06:04:59.987Z,16.23
2023-10-12T06:06:01.596Z,16.24
2023-10-12T06:07:04.397Z,16.42
2023-10-12T06:08:06.472Z,16.39
2023-10-12T06:09:13.049Z,16.42
2023-10-12T06:10:14.453Z,16.45
2023-10-12T06:11:19.183Z,16.45
2023-10-12T06:12:22.538Z,16.47
2023-10-12T06:13:31.558Z,16.57
2023-10-12T06:14:34.846Z,16.48
2023-10-12T06:15:54.293Z,16.55
2023-10-12T06:16:57.267Z,16.58
2023-10-12T06:17:59.299Z,16.58
2023-10-12T06:19:01.689Z,16.72
2023-10-12T06:20:12.611Z,16.70
2023-10-12T06:21:18.676Z,16.73
2023-10-12T06:22:33.287Z,16.80
2023-10-12T06:23:40.716Z,16.89
2023-10-12T06:24:45.749Z,16.88
2023-10-12T06:26:00.665Z,16.94
2023-10-12T06:27:23.736Z,17.00
2023-10-12T06:28:28.762Z,17.02
2023-10-12T06:29:31.337Z,17.07
2023-10-12T06:30:33.126Z,17.19
2023-10-12T06:31:35.088Z,17.23
2023-10-12T06:32:40.625Z,17.27
2023-10-12T06:33:43.056Z,17.14
2023-10-12T06:34:45.332Z,17.16
2023-10-12T06:36:00.410Z,17.30
2023-10-12T06:37:21.842Z,17.39
2023-10-12T06:38:37.441Z,17.29
2023-10-12T06:40:01.718Z,17.24
2023-10-12T06:41:27.178Z,17.43
2023-10-12T06:42:30.823Z,17.44
2023-10-12T06:43:32.294Z,17.46
2023-10-12T06:44:34.650Z,17.34
2023-10-12T06:45:48.033Z,17.43
2023-10-12T06:47:23.338Z,17.45
2023-10-12T06:48:29.629Z,17.44
2023-10-12T06:49:33.614Z,17.46
2023-10-12T06:50:38.609Z,17.46
2023-10-12T06:51:40.149Z,17.55
2023-10-12T06:52:43.625Z,17.46
2023-10-12T06:53:53.307Z,17.55
2023-10-12T06:55:00.769Z,17.58
2023-10-12T06:56:17.387Z,17.50
2023-10-12T06:57:19.395Z,17.75
2023-10-12T06:58:21.629Z,17.76
2023-10-12T06:59:29.214Z,17.62
2023-10-12T07:00:35.407Z,17.67
2023-10-12T07:01:51.106Z,17.74
2023-10-12T07:02:53.592Z,17.76
2023-10-12T07:03:55.233Z,17.65
2023-10-12T07:04:58.547Z,17.72
2023-10-12T07:06:00.740Z,17.76
2023-10-12T07:07:08.468Z,17.61
2023-10-12T07:08:16.755Z,17.79
2023-10-12T07:09:28.318Z,17.77
2023-10-12T07:10:29.906Z,17.77
2023-10-12T07:11:31.824Z,17.89
2023-10-12T07:12:35.204Z,17.86
2023-10-12T07:13:40.758Z,17.93
2023-10-12T07:14:54.121Z,18.11
2023-10-12T07:15:55.962Z,18.05
2023-10-12T07:16:58.482Z,18.06
2023-10-12T07:18:06.992Z,18.04
2023-10-12T07:20:28.704Z,17.96
2023-10-12T07:21:30.121Z,17.94
2023-10-12T07:22:37.747Z,17.85
2023-10-12T07:23:44.670Z,17.76
2023-10-12T07:24:47.607Z,17.70
2023-10-12T07:25:50.574Z,17.69
2023-10-12T07:26:52.272Z,17.72
2023-10-12T07:28:00.613Z,17.77
2023-10-12T07:29:08.993Z,17.73
2023-10-12T07:30:31.708Z,17.91
2023-10-12T07:31:42.585Z,17.87
2023-10-12T07:32:56.342Z,17.80
2023-10-12T07:33:58.303Z,17.84
2023-10-12T07:35:07.843Z,17.77
2023-10-12T07:36:12.329Z,17.95
2023-10-12T07:37:15.036Z,18.00
2023-10-12T07:38:36.281Z,18.13
2023-10-12T07:39:43.808Z,18.11
2023-10-12T07:41:01.828Z,18.14
2023-10-12T07:42:03.943Z,18.24
2023-10-12T07:43:07.770Z,18.22
2023-10-12T07:44:09.347Z,18.16
2023-10-12T07:45:15.882Z,18.05
2023-10-12T07:46:26.367Z,18.09
2023-10-12T07:47:41.595Z,18.02
2023-10-12T07:48:45.245Z,18.11
2023-10-12T07:49:52.580Z,18.09
2023-10-12T07:50:54.268Z,18.02
2023-10-12T07:52:16.064Z,18.04
2023-10-12T07:53:25.200Z,17.97
2023-10-12T07:54:46.705Z,17.96
2023-10-12T07:55:54.724Z,17.94
2023-10-12T07:56:56.239Z,17.82
2023-10-12T07:57:58.169Z,17.75
2023-10-12T07:58:59.829Z,17.86
2023-10-12T08:00:20.120Z,17.75
2023-10-12T08:01:40.070Z,17.75
2023-10-12T08:02:48.904Z,17.74
2023-10-12T08:03:53.676Z,17.75
2023-10-12T08:04:59.760Z,17.66
2023-10-12T08:06:08.383Z,17.74
2023-10-12T08:07:09.996Z,17.83
2023-10-12T08:08:34.596Z,17.73
2023-10-12T08:09:48.588Z,17.81
2023-10-12T08:10:57.621Z,17.71
2023-10-12T08:11:59.990Z,17.64
2023-10-12T08:13:05.603Z,17.62
2023-10-12T08:14:39.412Z,17.66
2023-10-12T08:15:51.110Z,17.57
2023-10-12T08:17:31.709Z,17.66
2023-10-12T08:18:53.024Z,17.73
2023-10-12T08:20:17.329Z,17.70
2023-10-12T08:21:31.694Z,17.65
2023-10-12T08:22:34.111Z,17.70
2023-10-12T08:23:36.744Z,17.54
2023-10-12T08:24:38.661Z,17.57
2023-10-12T08:25:40.417Z,17.60
2023-10-12T08:26:43.118Z,17.60
2023-10-12T08:27:55.819Z,17.60
2023-10-12T08:28:58.376Z,17.58
2023-10-12T08:30:20.891Z,17.60
2023-10-12T08:31:28.935Z,17.53
2023-10-12T08:32:31.400Z,17.51
2023-10-12T08:33:59.046Z,17.61
2023-10-12T08:35:00.575Z,17.59
2023-10-12T08:36:16.977Z,17.61
2023-10-12T08:37:21.117Z,17.65
2023-10-12T08:38:34.085Z,17.59
2023-10-12T08:39:53.853Z,17.68
2023-10-12T08:41:13.972Z,17.62
2023-10-12T08:42:34.443Z,17.61
2023-10-12T08:43:45.058Z,17.61
2023-10-12T08:44:48.140Z,17.57
2023-10-12T08:45:54.246Z,17.56
2023-10-12T08:47:08.747Z,17.53
2023-10-12T08:48:11.142Z,17.57
2023-10-12T08:49:31.345Z,17.59
2023-10-12T08:50:51.008Z,17.47
2023-10-12T08:52:07.804Z,17.57
2023-10-12T08:53:14.532Z,17.46
2023-10-12T08:54:18.342Z,17.43
2023-10-12T08:55:26.762Z,17.38
2023-10-12T08:56:33.781Z,17.44
2023-10-12T08:57:56.764Z,17.37
2023-10-12T08:59:02.000Z,17.44
2023-10-12T09:00:40.245Z,17.47
2023-10-12T09:01:43.735Z,17.44
2023-10-12T09:02:50.468Z,17.41
2023-10-12T09:04:02.312Z,17.37
2023-10-12T09:05:05.748Z,17.32
2023-10-12T09:06:25.940Z,17.47
2023-10-12T09:07:39.237Z,17.49
2023-10-12T09:08:40.758Z,17.55
2023-10-12T09:09:56.296Z,17.53
2023-10-12T09:11:03.939Z,17.57
2023-10-12T09:12:12.385Z,17.53
2023-10-12T09:13:18.204Z,17.61
2023-10-12T09:14:24.781Z,17.55
2023-10-12T09:15:30.582Z,17.73
2023-10-12T09:16:32.183Z,17.64
2023-10-12T09:17:34.196Z,17.63
2023-10-12T09:18:48.159Z,17.73
2023-10-12T09:19:50.475Z,17.67
2023-10-12T09:21:01.656Z,17.70
2023-10-12T09:22:04.525Z,17.80
2023-10-12T09:23:13.476Z,17.98
2023-10-12T09:24:29.313Z,17.89
2023-10-12T09:25:54.374Z,17.75
2023-10-12T09:27:12.572Z,17.91
2023-10-12T09:28:15.886Z,17.95
2023-10-12T09:29:32.444Z,17.92
2023-10-12T09:30:36.718Z,17.99
2023-10-12T09:31:41.994Z,17.97
2023-10-12T09:32:58.236Z,17.92
2023-10-12T09:34:01.188Z,18.01
2023-10-12T09:35:12.548Z,18.06
2023-10-12T09:36:14.503Z,18.00
2023-10-12T09:37:19.704Z,18.11
2023-10-12T09:38:21.179Z,18.04
2023-10-12T09:39:28.381Z,18.11
2023-10-12T09:40:43.933Z,18.30
2023-10-12T09:41:59.498Z,18.13
2023-10-12T09:43:07.552Z,18.35
2023-10-12T09:44:13.001Z,18.36
2023-10-12T09:45:25.618Z,18.41
2023-10-12T09:46:36.749Z,18.43
2023-10-12T09:47:51.702Z,18.39
2023-10-12T09:49:00.031Z,18.45
2023-10-12T09:50:14.094Z,18.41
2023-10-12T09:51:16.856Z,18.41
2023-10-12T09:52:23.141Z,18.45
2023-10-12T09:53:38.107Z,18.49
2023-10-12T09:54:49.868Z,18.37
2023-10-12T09:56:12.629Z,18.40
2023-10-12T09:57:24.774Z,18.40
2023-10-12T09:58:26.536Z,18.30
2023-10-12T09:59:32.018Z,18.39
2023-10-12T10:00:52.628Z,18.36
2023-10-12T10:02:02.719Z,18.44
2023-10-12T10:03:04.842Z,18.49
2023-10-12T10:04:39.207Z,18.47
2023-10-12T10:05:53.807Z,18.49
2023-10-12T10:07:26.480Z,18.58
2023-10-12T10:08:30.562Z,18.59
2023-10-12T10:09:32.439Z,18.68
2023-10-12T10:10:35.501Z,18.77
2023-10-12T10:11:39.169Z,18.79
2023-10-12T10:12:43.865Z,18.75
2023-10-12T10:13:50.477Z,18.72
2023-10-12T10:15:01.140Z,18.68
2023-10-12T10:16:09.336Z,18.65
2023-10-12T10:17:16.864Z,18.79
2023-10-12T10:18:20.733Z,18.71
2023-10-12T10:19:24.956Z,18.61
2023-10-12T10:20:27.796Z,18.62
2023-10-12T10:21:32.453Z,18.76
2023-10-12T10:22:38.490Z,18.75
2023-10-12T10:23:49.666Z,18.63
2023-10-12T10:24:57.108Z,18.66
2023-10-12T10:26:17.318Z,18.79
2023-10-12T10:27:19.784Z,18.72
2023-10-12T10:28:28.961Z,18.74
2023-10-12T10:29:46.041Z,18.79
2023-10-12T10:30:54.320Z,18.79
2023-10-12T10:31:56.006Z,18.83
2023-10-12T10:33:14.068Z,18.88
2023-10-12T10:34:24.376Z,18.95
2023-10-12T10:35:57.792Z,19.03
2023-10-12T10:36:59.456Z,19.10
2023-10-12T10:38:01.042Z,19.01
2023-10-12T10:39:29.979Z,19.03
2023-10-12T10:40:48.856Z,19.07
2023-10-12T10:41:57.648Z,19.28
2023-10-12T10:43:05.957Z,19.29
2023-10-12T10:44:16.597Z,19.42
2023-10-12T10:45:20.346Z,19.36
2023-10-12T10:46:27.778Z,19.36
2023-10-12T10:47:35.961Z,19.41
2023-10-12T10:49:50.028Z,19.40
2023-10-12T10:50:52.401Z,19.29
2023-10-12T10:52:04.038Z,19.36
2023-10-12T10:53:09.433Z,19.22
2023-10-12T10:54:19.472Z,19.33
2023-10-12T10:55:25.298Z,19.25
2023-10-12T10:56:42.726Z,19.36
2023-10-12T10:57:44.194Z,19.31
2023-10-12T10:58:47.251Z,19.37
2023-10-12T10:59:48.838Z,19.30
2023-10-12T11:00:57.698Z,19.62
2023-10-12T11:02:00.682Z,19.56
2023-10-12T11:03:04.718Z,19.61
2023-10-12T11:04:10.770Z,19.64
2023-10-12T11:05:20.562Z,19.73
2023-10-12T11:06:25.333Z,19.77
2023-10-12T11:07:27.230Z,19.76
2023-10-12T11:08:28.999Z,19.74
2023-10-12T11:09:55.448Z,19.68
2023-10-12T11:11:09.523Z,19.71
2023-10-12T11:12:12.000Z,19.87
2023-10-12T11:13:18.817Z,19.96
2023-10-12T11:14:23.210Z,19.96
2023-10-12T11:15:25.228Z,20.08
2023-10-12T11:16:30.973Z,20.26
2023-10-12T11:17:41.986Z,20.41
2023-10-12T11:18:44.114Z,20.30
2023-10-12T11:19:45.614Z,20.27
2023-10-12T11:20:58.544Z,20.31
2023-10-12T11:22:00.690Z,20.09
2023-10-12T11:23:08.889Z,19.98
2023-10-12T11:24:10.915Z,20.02
2023-10-12T11:25:13.692Z,20.13
2023-10-12T11:26:21.922Z,20.12
2023-10-12T11:27:30.588Z,20.10
2023-10-12T11:28:34.767Z,20.19
2023-10-12T11:29:51.169Z,20.15
2023-10-12T11:30:55.349Z,19.99
2023-10-12T11:32:12.474Z,19.92
2023-10-12T11:33:14.453Z,19.97
2023-10-12T11:34:24.694Z,19.97
2023-10-12T11:35:45.488Z,20.10
2023-10-12T11:36:47.134Z,20.15
2023-10-12T11:37:48.941Z,20.20
2023-10-12T11:39:05.488Z,20.42
2023-10-12T11:40:08.657Z,20.47
2023-10-12T11:41:14.883Z,20.67
2023-10-12T11:42:16.447Z,20.63
2023-10-12T11:43:18.060Z,20.75
2023-10-12T11:44:32.318Z,20.84
2023-10-12T11:45:36.393Z,20.76
2023-10-12T11:46:47.368Z,21.09
2023-10-12T11:47:51.417Z,21.01
2023-10-12T11:49:09.407Z,21.07
2023-10-12T11:50:12.662Z,21.00
2023-10-12T11:51:14.243Z,21.09
2023-10-12T11:52:23.032Z,21.45
2023-10-12T11:53:26.563Z,21.63
2023-10-12T11:54:34.397Z,21.64
2023-10-12T11:55:35.833Z,21.55
2023-10-12T11:56:44.889Z,21.73
2023-10-12T11:57:55.599Z,21.85
2023-10-12T11:58:58.462Z,21.74
2023-10-12T12:00:00.194Z,21.87
2023-10-12T12:01:01.945Z,21.86
2023-10-12T12:02:09.860Z,21.78
2023-10-12T12:03:12.240Z,21.87
2023-10-12T12:04:24.497Z,21.97
2023-10-12T12:05:34.328Z,22.07
2023-10-12T12:06:35.937Z,22.08
2023-10-12T12:07:37.520Z,22.18
2023-10-12T12:08:39.285Z,22.04
2023-10-12T12:09:41.658Z,22.13
2023-10-12T12:10:46.751Z,22.18
2023-10-12T12:11:48.354Z,22.19
2023-10-12T12:12:53.199Z,22.27
2023-10-12T12:13:54.719Z,22.42
2023-10-12T12:14:56.181Z,22.21
2023-10-12T12:15:57.933Z,22.58
2023-10-12T12:16:59.464Z,22.64
2023-10-12T12:18:01.161Z,22.45
2023-10-12T12:19:02.897Z,22.23
2023-10-12T12:20:08.707Z,22.17
2023-10-12T12:21:15.866Z,22.08
2023-10-12T12:22:17.443Z,22.04
2023-10-12T12:23:20.610Z,21.91
2023-10-12T12:24:25.339Z,21.89
2023-10-12T12:25:39.846Z,21.69
2023-10-12T12:26:46.906Z,21.62
2023-10-12T12:27:50.616Z,21.46
2023-10-12T12:29:04.686Z,21.46
2023-10-12T12:31:16.243Z,21.26
2023-10-12T12:32:19.553Z,21.18
2023-10-12T12:33:21.349Z,21.11
2023-10-12T12:34:39.277Z,21.12
2023-10-12T12:35:41.975Z,21.21
2023-10-12T12:36:43.461Z,21.14
2023-10-12T12:37:44.909Z,21.19
2023-10-12T12:38:48.724Z,21.15
2023-10-12T12:40:15.720Z,21.10
2023-10-12T12:41:19.908Z,21.04
2023-10-12T12:42:21.498Z,20.91
2023-10-12T12:43:23.250Z,20.92
2023-10-12T12:44:24.775Z,20.99
2023-10-12T12:45:26.258Z,20.97
2023-10-12T12:46:27.966Z,20.92
2023-10-12T12:47:33.601Z,20.86
2023-10-12T12:48:35.142Z,20.82
2023-10-12T12:49:36.596Z,20.88
2023-10-12T12:50:38.112Z,20.83
2023-10-12T12:51:40.052Z,20.80
2023-10-12T12:52:47.763Z,20.81
2023-10-12T12:53:51.471Z,20.79
2023-10-12T12:54:53.054Z,20.75
2023-10-12T12:55:55.051Z,20.77
2023-10-12T12:56:56.582Z,20.90
2023-10-12T12:57:58.103Z,20.98
2023-10-12T12:59:00.424Z,20.86
2023-10-12T13:00:08.654Z,20.81
2023-10-12T13:01:11.667Z,20.78
2023-10-12T13:02:15.545Z,20.81
2023-10-12T13:03:17.938Z,20.78
2023-10-12T13:04:20.616Z,20.72
2023-10-12T13:05:22.542Z,20.73
2023-10-12T13:06:27.497Z,20.66
2023-10-12T13:07:29.473Z,20.75
2023-10-12T13:08:31.524Z,20.73
2023-10-12T13:09:35.290Z,20.64
2023-10-12T13:10:37.168Z,20.62
2023-10-12T13:11:38.618Z,20.58
2023-10-12T13:12:45.852Z,20.54
2023-10-12T13:13:49.723Z,20.52
2023-10-12T13:14:51.213Z,20.59
2023-10-12T13:15:52.727Z,20.61
2023-10-12T13:16:54.305Z,20.55
2023-10-12T13:17:58.857Z,20.52
2023-10-12T13:19:02.350Z,20.57
2023-10-12T13:20:04.277Z,20.64
2023-10-12T13:21:07.804Z,20.61
2023-10-12T13:22:09.736Z,20.54
2023-10-12T13:23:14.209Z,20.68
2023-10-12T13:24:15.772Z,20.68
2023-10-12T13:25:19.827Z,20.64
2023-10-12T13:26:23.871Z,20.68
2023-10-12T13:27:28.744Z,20.78
2023-10-12T13:28:30.337Z,20.76
2023-10-12T13:29:31.766Z,20.94
2023-10-12T13:30:34.226Z,20.98
2023-10-12T13:31:36.423Z,20.99
2023-10-12T13:32:38.171Z,21.09
2023-10-12T13:33:42.865Z,21.21
2023-10-12T13:34:44.496Z,21.23
2023-10-12T13:35:47.350Z,21.31
2023-10-12T13:36:48.892Z,21.36
2023-10-12T13:37:52.369Z,21.38
2023-10-12T13:38:53.841Z,21.40
2023-10-12T13:39:55.453Z,21.45
2023-10-12T13:40:59.020Z,21.30
2023-10-12T13:42:00.542Z,21.27
2023-10-12T13:43:15.738Z,21.19
2023-10-12T13:44:20.838Z,21.28
2023-10-12T13:45:22.388Z,21.26
2023-10-12T13:46:23.996Z,21.27
2023-10-12T13:47:26.427Z,21.23
2023-10-12T13:48:29.751Z,21.13
2023-10-12T13:49:31.657Z,21.16
2023-10-12T13:50:33.205Z,21.27
2023-10-12T13:51:37.554Z,21.24
2023-10-12T13:52:39.914Z,21.38
2023-10-12T13:53:42.141Z,21.39
2023-10-12T13:54:46.711Z,21.33
2023-10-12T13:55:48.795Z,21.27
2023-10-12T13:56:57.535Z,21.39
2023-10-12T13:57:59.168Z,21.26
2023-10-12T13:59:00.720Z,21.23
2023-10-12T14:00:02.220Z,21.24
2023-10-12T14:01:15.878Z,21.23
2023-10-12T14:02:18.146Z,21.20
2023-10-12T14:03:28.443Z,21.19
2023-10-12T14:04:30.585Z,21.18
2023-10-12T14:05:32.294Z,21.15
2023-10-12T14:06:34.391Z,21.34
2023-10-12T14:07:38.320Z,21.33
2023-10-12T14:08:43.634Z,21.31
2023-10-12T14:09:45.165Z,21.32
2023-10-12T14:10:46.958Z,21.34
2023-10-12T14:11:52.555Z,21.31
2023-10-12T14:12:54.923Z,21.46
2023-10-12T14:13:56.645Z,21.36
2023-10-12T14:14:58.404Z,21.37
2023-10-12T14:16:01.259Z,21.46
2023-10-12T14:17:05.872Z,21.37
2023-10-12T14:18:12.161Z,21.28
2023-10-12T14:19:17.622Z,21.29
2023-10-12T14:20:21.457Z,21.33
2023-10-12T14:21:23.852Z,21.31
2023-10-12T14:22:28.079Z,21.34
2023-10-12T14:23:31.047Z,21.27
2023-10-12T14:24:35.083Z,21.32
2023-10-12T14:25:44.315Z,21.24
2023-10-12T14:26:46.090Z,21.28
2023-10-12T14:27:47.568Z,21.26
2023-10-12T14:28:54.653Z,21.22
2023-10-12T14:29:56.136Z,21.15
2023-10-12T14:30:57.706Z,21.19